sensor_id;sensor_type;location;lat;lon;timestamp;P1;durP1;ratioP1;P2;durP2;ratioP2
18338;SDS011;9295;44.484;11.240;2023-04-30T00:00:38;25.53;;;18.77;;
18338;SDS011;9295;44.484;11.240;2023-04-30T00:03:06;24.90;;;18.70;;
18338;SDS011;9295;44.484;11.240;2023-04-30T00:05:34;21.40;;;16.73;;
18338;SDS011;9295;44.484;11.240;2023-04-30T00:08:05;24.83;;;18.33;;
18338;SDS011;9295;44.484;11.240;2023-04-30T00:10:33;27.77;;;18.87;;
18338;SDS011;9295;44.484;11.240;2023-04-30T00:13:02;26.80;;;20.23;;
18338;SDS011;9295;44.484;11.240;2023-04-30T00:15:30;30.50;;;19.87;;
18338;SDS011;9295;44.484;11.240;2023-04-30T00:17:58;24.97;;;17.90;;
18338;SDS011;9295;44.484;11.240;2023-04-30T00:20:27;26.57;;;18.70;;
18338;SDS011;9295;44.484;11.240;2023-04-30T00:22:55;29.50;;;19.97;;
18338;SDS011;9295;44.484;11.240;2023-04-30T00:25:25;30.20;;;19.50;;
18338;SDS011;9295;44.484;11.240;2023-04-30T00:27:53;25.63;;;19.73;;
18338;SDS011;9295;44.484;11.240;2023-04-30T00:30:22;25.33;;;18.80;;
18338;SDS011;9295;44.484;11.240;2023-04-30T00:32:50;30.17;;;19.60;;
18338;SDS011;9295;44.484;11.240;2023-04-30T00:35:18;25.73;;;18.53;;
18338;SDS011;9295;44.484;11.240;2023-04-30T00:37:47;24.87;;;19.10;;
18338;SDS011;9295;44.484;11.240;2023-04-30T00:40:15;29.03;;;18.73;;
18338;SDS011;9295;44.484;11.240;2023-04-30T00:42:45;23.70;;;18.13;;
18338;SDS011;9295;44.484;11.240;2023-04-30T00:45:15;25.33;;;18.10;;
18338;SDS011;9295;44.484;11.240;2023-04-30T00:47:47;23.03;;;17.23;;
18338;SDS011;9295;44.484;11.240;2023-04-30T00:50:16;23.47;;;18.20;;
18338;SDS011;9295;44.484;11.240;2023-04-30T00:52:44;23.40;;;18.77;;
18338;SDS011;9295;44.484;11.240;2023-04-30T00:55:13;24.57;;;17.47;;
18338;SDS011;9295;44.484;11.240;2023-04-30T00:57:41;25.87;;;18.67;;
18338;SDS011;9295;44.484;11.240;2023-04-30T01:00:12;25.50;;;19.00;;
18338;SDS011;9295;44.484;11.240;2023-04-30T01:02:40;23.37;;;18.30;;
18338;SDS011;9295;44.484;11.240;2023-04-30T01:05:10;23.77;;;19.07;;
18338;SDS011;9295;44.484;11.240;2023-04-30T01:07:39;26.50;;;19.47;;
18338;SDS011;9295;44.484;11.240;2023-04-30T01:10:11;26.00;;;19.27;;
18338;SDS011;9295;44.484;11.240;2023-04-30T01:12:42;26.00;;;20.13;;
18338;SDS011;9295;44.484;11.240;2023-04-30T01:15:18;26.50;;;20.17;;
18338;SDS011;9295;44.484;11.240;2023-04-30T01:17:52;39.23;;;20.27;;
18338;SDS011;9295;44.484;11.240;2023-04-30T01:20:23;28.70;;;19.80;;
18338;SDS011;9295;44.484;11.240;2023-04-30T01:22:57;24.83;;;18.27;;
18338;SDS011;9295;44.484;11.240;2023-04-30T01:25:43;27.30;;;20.00;;
18338;SDS011;9295;44.484;11.240;2023-04-30T01:28:30;25.80;;;19.27;;
18338;SDS011;9295;44.484;11.240;2023-04-30T01:31:02;28.30;;;19.70;;
18338;SDS011;9295;44.484;11.240;2023-04-30T01:33:30;26.77;;;18.47;;
18338;SDS011;9295;44.484;11.240;2023-04-30T01:36:09;26.83;;;18.70;;
18338;SDS011;9295;44.484;11.240;2023-04-30T01:41:56;27.80;;;19.00;;
18338;SDS011;9295;44.484;11.240;2023-04-30T01:44:40;25.13;;;18.90;;
18338;SDS011;9295;44.484;11.240;2023-04-30T01:47:17;27.47;;;19.00;;
18338;SDS011;9295;44.484;11.240;2023-04-30T01:49:55;25.57;;;19.57;;
18338;SDS011;9295;44.484;11.240;2023-04-30T01:52:41;27.47;;;20.40;;
18338;SDS011;9295;44.484;11.240;2023-04-30T01:55:14;29.80;;;18.67;;
18338;SDS011;9295;44.484;11.240;2023-04-30T01:57:49;24.00;;;17.47;;
18338;SDS011;9295;44.484;11.240;2023-04-30T02:00:23;28.70;;;17.93;;
18338;SDS011;9295;44.484;11.240;2023-04-30T02:02:54;24.67;;;19.07;;
18338;SDS011;9295;44.484;11.240;2023-04-30T02:05:22;23.13;;;17.87;;
18338;SDS011;9295;44.484;11.240;2023-04-30T02:07:51;22.37;;;17.80;;
18338;SDS011;9295;44.484;11.240;2023-04-30T02:10:20;26.03;;;18.57;;
18338;SDS011;9295;44.484;11.240;2023-04-30T02:12:52;23.83;;;17.67;;
18338;SDS011;9295;44.484;11.240;2023-04-30T02:15:21;25.20;;;18.43;;
18338;SDS011;9295;44.484;11.240;2023-04-30T02:17:51;22.30;;;16.87;;
18338;SDS011;9295;44.484;11.240;2023-04-30T02:20:19;27.40;;;18.70;;
18338;SDS011;9295;44.484;11.240;2023-04-30T02:22:48;24.03;;;17.60;;
18338;SDS011;9295;44.484;11.240;2023-04-30T02:25:16;26.83;;;17.93;;
18338;SDS011;9295;44.484;11.240;2023-04-30T02:27:44;23.63;;;18.27;;
18338;SDS011;9295;44.484;11.240;2023-04-30T02:30:13;30.10;;;20.13;;
18338;SDS011;9295;44.484;11.240;2023-04-30T02:32:43;23.97;;;19.50;;
18338;SDS011;9295;44.484;11.240;2023-04-30T02:35:11;26.73;;;19.10;;
18338;SDS011;9295;44.484;11.240;2023-04-30T02:37:39;26.47;;;18.53;;
18338;SDS011;9295;44.484;11.240;2023-04-30T02:40:08;27.00;;;19.40;;
18338;SDS011;9295;44.484;11.240;2023-04-30T02:42:37;28.43;;;19.60;;
18338;SDS011;9295;44.484;11.240;2023-04-30T02:45:06;23.63;;;18.63;;
18338;SDS011;9295;44.484;11.240;2023-04-30T02:47:35;29.43;;;19.70;;
18338;SDS011;9295;44.484;11.240;2023-04-30T02:50:05;33.30;;;20.53;;
18338;SDS011;9295;44.484;11.240;2023-04-30T02:52:35;29.37;;;21.33;;
18338;SDS011;9295;44.484;11.240;2023-04-30T02:55:03;27.23;;;18.93;;
18338;SDS011;9295;44.484;11.240;2023-04-30T02:57:32;26.13;;;19.67;;
18338;SDS011;9295;44.484;11.240;2023-04-30T03:00:01;25.80;;;21.10;;
18338;SDS011;9295;44.484;11.240;2023-04-30T03:02:30;31.57;;;21.63;;
18338;SDS011;9295;44.484;11.240;2023-04-30T03:04:58;24.43;;;18.60;;
18338;SDS011;9295;44.484;11.240;2023-04-30T03:07:28;24.60;;;19.10;;
18338;SDS011;9295;44.484;11.240;2023-04-30T03:09:58;27.30;;;19.40;;
18338;SDS011;9295;44.484;11.240;2023-04-30T03:12:26;29.53;;;19.70;;
18338;SDS011;9295;44.484;11.240;2023-04-30T03:14:54;28.13;;;21.50;;
18338;SDS011;9295;44.484;11.240;2023-04-30T03:17:23;30.60;;;23.23;;
18338;SDS011;9295;44.484;11.240;2023-04-30T03:19:51;38.13;;;26.30;;
18338;SDS011;9295;44.484;11.240;2023-04-30T03:22:20;41.07;;;26.10;;
18338;SDS011;9295;44.484;11.240;2023-04-30T03:24:50;34.53;;;25.37;;
18338;SDS011;9295;44.484;11.240;2023-04-30T03:27:19;36.70;;;25.80;;
18338;SDS011;9295;44.484;11.240;2023-04-30T03:29:48;38.90;;;26.73;;
18338;SDS011;9295;44.484;11.240;2023-04-30T03:32:16;34.27;;;25.57;;
18338;SDS011;9295;44.484;11.240;2023-04-30T03:34:44;38.00;;;27.27;;
18338;SDS011;9295;44.484;11.240;2023-04-30T03:37:13;46.00;;;30.83;;
18338;SDS011;9295;44.484;11.240;2023-04-30T03:39:41;46.30;;;31.00;;
18338;SDS011;9295;44.484;11.240;2023-04-30T03:42:11;51.30;;;32.07;;
18338;SDS011;9295;44.484;11.240;2023-04-30T03:44:39;56.87;;;35.87;;
18338;SDS011;9295;44.484;11.240;2023-04-30T03:47:08;53.97;;;33.20;;
18338;SDS011;9295;44.484;11.240;2023-04-30T03:49:36;57.50;;;33.43;;
18338;SDS011;9295;44.484;11.240;2023-04-30T03:52:05;57.43;;;34.10;;
18338;SDS011;9295;44.484;11.240;2023-04-30T03:54:33;54.47;;;33.83;;
18338;SDS011;9295;44.484;11.240;2023-04-30T03:57:02;49.90;;;32.20;;
18338;SDS011;9295;44.484;11.240;2023-04-30T03:59:32;55.23;;;33.37;;
18338;SDS011;9295;44.484;11.240;2023-04-30T04:02:01;56.50;;;33.97;;
18338;SDS011;9295;44.484;11.240;2023-04-30T04:04:29;56.10;;;33.67;;
18338;SDS011;9295;44.484;11.240;2023-04-30T04:06:58;52.30;;;32.10;;
18338;SDS011;9295;44.484;11.240;2023-04-30T04:09:29;53.37;;;33.00;;
18338;SDS011;9295;44.484;11.240;2023-04-30T04:11:57;52.67;;;32.37;;
18338;SDS011;9295;44.484;11.240;2023-04-30T04:14:26;51.67;;;32.10;;
18338;SDS011;9295;44.484;11.240;2023-04-30T04:16:56;53.40;;;33.07;;
18338;SDS011;9295;44.484;11.240;2023-04-30T04:19:25;45.93;;;30.90;;
18338;SDS011;9295;44.484;11.240;2023-04-30T04:21:56;59.13;;;32.40;;
18338;SDS011;9295;44.484;11.240;2023-04-30T04:24:24;56.03;;;35.07;;
18338;SDS011;9295;44.484;11.240;2023-04-30T04:26:52;52.83;;;33.00;;
18338;SDS011;9295;44.484;11.240;2023-04-30T04:29:21;48.23;;;31.13;;
18338;SDS011;9295;44.484;11.240;2023-04-30T04:31:50;51.13;;;33.20;;
18338;SDS011;9295;44.484;11.240;2023-04-30T04:34:20;48.97;;;32.20;;
18338;SDS011;9295;44.484;11.240;2023-04-30T04:36:48;48.80;;;30.93;;
18338;SDS011;9295;44.484;11.240;2023-04-30T04:39:17;53.50;;;32.93;;
18338;SDS011;9295;44.484;11.240;2023-04-30T04:41:45;49.73;;;32.30;;
18338;SDS011;9295;44.484;11.240;2023-04-30T04:44:14;49.10;;;30.07;;
18338;SDS011;9295;44.484;11.240;2023-04-30T04:46:43;58.53;;;31.93;;
18338;SDS011;9295;44.484;11.240;2023-04-30T04:49:11;47.97;;;30.67;;
18338;SDS011;9295;44.484;11.240;2023-04-30T04:51:41;46.93;;;31.83;;
18338;SDS011;9295;44.484;11.240;2023-04-30T04:54:09;45.40;;;29.80;;
18338;SDS011;9295;44.484;11.240;2023-04-30T04:56:38;47.03;;;29.67;;
18338;SDS011;9295;44.484;11.240;2023-04-30T04:59:06;43.43;;;28.03;;
18338;SDS011;9295;44.484;11.240;2023-04-30T05:01:35;42.50;;;29.33;;
18338;SDS011;9295;44.484;11.240;2023-04-30T05:04:04;44.57;;;28.90;;
18338;SDS011;9295;44.484;11.240;2023-04-30T05:06:35;43.70;;;29.27;;
18338;SDS011;9295;44.484;11.240;2023-04-30T05:09:04;42.03;;;27.60;;
18338;SDS011;9295;44.484;11.240;2023-04-30T05:11:35;44.70;;;30.00;;
18338;SDS011;9295;44.484;11.240;2023-04-30T05:14:03;38.80;;;27.73;;
18338;SDS011;9295;44.484;11.240;2023-04-30T05:16:31;40.13;;;27.20;;
18338;SDS011;9295;44.484;11.240;2023-04-30T05:19:00;38.97;;;26.53;;
18338;SDS011;9295;44.484;11.240;2023-04-30T05:21:29;42.03;;;29.00;;
18338;SDS011;9295;44.484;11.240;2023-04-30T05:23:57;42.77;;;28.17;;
18338;SDS011;9295;44.484;11.240;2023-04-30T05:26:27;41.00;;;28.60;;
18338;SDS011;9295;44.484;11.240;2023-04-30T05:28:55;40.80;;;28.10;;
18338;SDS011;9295;44.484;11.240;2023-04-30T05:31:24;46.30;;;31.20;;
18338;SDS011;9295;44.484;11.240;2023-04-30T05:33:52;44.70;;;29.90;;
18338;SDS011;9295;44.484;11.240;2023-04-30T05:36:20;44.60;;;29.60;;
18338;SDS011;9295;44.484;11.240;2023-04-30T05:38:49;43.53;;;28.73;;
18338;SDS011;9295;44.484;11.240;2023-04-30T05:41:17;49.53;;;29.77;;
18338;SDS011;9295;44.484;11.240;2023-04-30T05:43:48;41.83;;;28.80;;
18338;SDS011;9295;44.484;11.240;2023-04-30T05:46:16;39.57;;;25.57;;
18338;SDS011;9295;44.484;11.240;2023-04-30T05:48:45;37.00;;;24.00;;
18338;SDS011;9295;44.484;11.240;2023-04-30T05:51:13;40.13;;;24.20;;
18338;SDS011;9295;44.484;11.240;2023-04-30T05:53:42;43.63;;;25.57;;
18338;SDS011;9295;44.484;11.240;2023-04-30T05:56:10;40.07;;;27.37;;
18338;SDS011;9295;44.484;11.240;2023-04-30T05:58:39;43.97;;;27.80;;
18338;SDS011;9295;44.484;11.240;2023-04-30T06:01:09;44.50;;;28.07;;
18338;SDS011;9295;44.484;11.240;2023-04-30T06:03:37;43.57;;;27.37;;
18338;SDS011;9295;44.484;11.240;2023-04-30T06:06:06;47.93;;;27.97;;
18338;SDS011;9295;44.484;11.240;2023-04-30T06:08:34;46.40;;;28.80;;
18338;SDS011;9295;44.484;11.240;2023-04-30T06:11:03;53.37;;;29.33;;
18338;SDS011;9295;44.484;11.240;2023-04-30T06:13:32;45.47;;;27.17;;
18338;SDS011;9295;44.484;11.240;2023-04-30T06:16:00;46.97;;;27.13;;
18338;SDS011;9295;44.484;11.240;2023-04-30T06:18:30;49.57;;;28.00;;
18338;SDS011;9295;44.484;11.240;2023-04-30T06:20:59;45.60;;;28.70;;
18338;SDS011;9295;44.484;11.240;2023-04-30T06:23:27;46.10;;;27.63;;
18338;SDS011;9295;44.484;11.240;2023-04-30T06:25:55;42.37;;;27.60;;
18338;SDS011;9295;44.484;11.240;2023-04-30T06:28:24;51.17;;;28.00;;
18338;SDS011;9295;44.484;11.240;2023-04-30T06:30:52;39.50;;;25.10;;
18338;SDS011;9295;44.484;11.240;2023-04-30T06:33:20;45.83;;;26.77;;
18338;SDS011;9295;44.484;11.240;2023-04-30T06:35:50;35.33;;;23.80;;
18338;SDS011;9295;44.484;11.240;2023-04-30T06:38:20;36.07;;;23.80;;
18338;SDS011;9295;44.484;11.240;2023-04-30T06:40:49;36.57;;;25.40;;
18338;SDS011;9295;44.484;11.240;2023-04-30T06:43:17;33.00;;;22.10;;
18338;SDS011;9295;44.484;11.240;2023-04-30T06:45:45;35.73;;;21.20;;
18338;SDS011;9295;44.484;11.240;2023-04-30T06:48:14;34.63;;;21.17;;
18338;SDS011;9295;44.484;11.240;2023-04-30T06:50:42;36.70;;;20.27;;
18338;SDS011;9295;44.484;11.240;2023-04-30T06:53:12;28.20;;;19.87;;
18338;SDS011;9295;44.484;11.240;2023-04-30T06:55:41;27.83;;;19.73;;
18338;SDS011;9295;44.484;11.240;2023-04-30T06:58:11;28.67;;;20.10;;
18338;SDS011;9295;44.484;11.240;2023-04-30T07:00:39;32.97;;;20.63;;
18338;SDS011;9295;44.484;11.240;2023-04-30T07:03:08;30.40;;;18.97;;
18338;SDS011;9295;44.484;11.240;2023-04-30T07:05:36;32.43;;;20.87;;
18338;SDS011;9295;44.484;11.240;2023-04-30T07:08:05;31.83;;;18.87;;
18338;SDS011;9295;44.484;11.240;2023-04-30T07:10:35;30.30;;;18.20;;
18338;SDS011;9295;44.484;11.240;2023-04-30T07:13:03;28.37;;;18.50;;
18338;SDS011;9295;44.484;11.240;2023-04-30T07:15:33;32.00;;;17.40;;
18338;SDS011;9295;44.484;11.240;2023-04-30T07:18:01;28.13;;;17.37;;
18338;SDS011;9295;44.484;11.240;2023-04-30T07:20:30;25.13;;;17.10;;
18338;SDS011;9295;44.484;11.240;2023-04-30T07:22:59;22.27;;;14.57;;
18338;SDS011;9295;44.484;11.240;2023-04-30T07:25:27;22.07;;;14.90;;
18338;SDS011;9295;44.484;11.240;2023-04-30T07:27:57;22.47;;;13.00;;
18338;SDS011;9295;44.484;11.240;2023-04-30T07:30:25;19.03;;;13.03;;
18338;SDS011;9295;44.484;11.240;2023-04-30T07:32:54;24.60;;;13.70;;
18338;SDS011;9295;44.484;11.240;2023-04-30T07:35:23;19.13;;;12.73;;
18338;SDS011;9295;44.484;11.240;2023-04-30T07:37:51;20.80;;;12.13;;
18338;SDS011;9295;44.484;11.240;2023-04-30T07:40:19;20.23;;;11.40;;
18338;SDS011;9295;44.484;11.240;2023-04-30T07:43:03;20.00;;;12.00;;
18338;SDS011;9295;44.484;11.240;2023-04-30T07:45:31;19.63;;;12.67;;
18338;SDS011;9295;44.484;11.240;2023-04-30T07:48:00;18.93;;;10.63;;
18338;SDS011;9295;44.484;11.240;2023-04-30T07:50:29;24.07;;;12.63;;
18338;SDS011;9295;44.484;11.240;2023-04-30T07:53:00;23.90;;;12.20;;
18338;SDS011;9295;44.484;11.240;2023-04-30T07:55:28;15.30;;;9.53;;
18338;SDS011;9295;44.484;11.240;2023-04-30T07:57:57;18.83;;;10.00;;
18338;SDS011;9295;44.484;11.240;2023-04-30T08:00:29;18.23;;;10.50;;
18338;SDS011;9295;44.484;11.240;2023-04-30T08:02:57;17.13;;;11.50;;
18338;SDS011;9295;44.484;11.240;2023-04-30T08:05:27;18.87;;;11.87;;
18338;SDS011;9295;44.484;11.240;2023-04-30T08:07:55;17.50;;;10.80;;
18338;SDS011;9295;44.484;11.240;2023-04-30T08:10:23;20.17;;;11.60;;
18338;SDS011;9295;44.484;11.240;2023-04-30T08:12:52;15.80;;;11.80;;
18338;SDS011;9295;44.484;11.240;2023-04-30T08:15:20;20.23;;;11.33;;
18338;SDS011;9295;44.484;11.240;2023-04-30T08:17:50;16.43;;;10.13;;
18338;SDS011;9295;44.484;11.240;2023-04-30T08:20:19;18.20;;;9.50;;
18338;SDS011;9295;44.484;11.240;2023-04-30T08:22:49;15.30;;;9.20;;
18338;SDS011;9295;44.484;11.240;2023-04-30T08:25:17;14.50;;;9.10;;
18338;SDS011;9295;44.484;11.240;2023-04-30T08:27:46;17.33;;;9.90;;
18338;SDS011;9295;44.484;11.240;2023-04-30T08:30:14;14.90;;;8.73;;
18338;SDS011;9295;44.484;11.240;2023-04-30T08:32:43;15.93;;;9.40;;
18338;SDS011;9295;44.484;11.240;2023-04-30T08:35:12;16.80;;;9.37;;
18338;SDS011;9295;44.484;11.240;2023-04-30T08:37:42;17.10;;;9.27;;
18338;SDS011;9295;44.484;11.240;2023-04-30T08:40:11;13.20;;;8.50;;
18338;SDS011;9295;44.484;11.240;2023-04-30T08:42:40;13.40;;;9.10;;
18338;SDS011;9295;44.484;11.240;2023-04-30T08:45:13;15.47;;;9.37;;
18338;SDS011;9295;44.484;11.240;2023-04-30T08:47:42;14.77;;;9.03;;
18338;SDS011;9295;44.484;11.240;2023-04-30T08:50:13;13.10;;;9.70;;
18338;SDS011;9295;44.484;11.240;2023-04-30T08:52:41;14.47;;;8.83;;
18338;SDS011;9295;44.484;11.240;2023-04-30T08:55:10;11.13;;;8.27;;
18338;SDS011;9295;44.484;11.240;2023-04-30T08:57:39;14.53;;;9.10;;
18338;SDS011;9295;44.484;11.240;2023-04-30T09:00:08;16.17;;;9.00;;
18338;SDS011;9295;44.484;11.240;2023-04-30T09:02:38;16.80;;;10.93;;
18338;SDS011;9295;44.484;11.240;2023-04-30T09:05:08;21.20;;;10.70;;
18338;SDS011;9295;44.484;11.240;2023-04-30T09:07:41;13.60;;;10.40;;
18338;SDS011;9295;44.484;11.240;2023-04-30T09:10:30;18.37;;;9.13;;
18338;SDS011;9295;44.484;11.240;2023-04-30T09:13:00;13.23;;;8.70;;
18338;SDS011;9295;44.484;11.240;2023-04-30T09:15:30;21.87;;;9.70;;
18338;SDS011;9295;44.484;11.240;2023-04-30T09:18:07;16.27;;;8.27;;
18338;SDS011;9295;44.484;11.240;2023-04-30T09:20:37;11.20;;;7.80;;
18338;SDS011;9295;44.484;11.240;2023-04-30T09:23:21;12.13;;;7.33;;
18338;SDS011;9295;44.484;11.240;2023-04-30T09:25:50;10.73;;;7.80;;
18338;SDS011;9295;44.484;11.240;2023-04-30T09:28:18;10.93;;;7.23;;
18338;SDS011;9295;44.484;11.240;2023-04-30T09:30:50;12.57;;;7.37;;
18338;SDS011;9295;44.484;11.240;2023-04-30T09:33:18;12.70;;;7.03;;
18338;SDS011;9295;44.484;11.240;2023-04-30T09:35:47;9.07;;;6.20;;
18338;SDS011;9295;44.484;11.240;2023-04-30T09:38:27;10.03;;;6.20;;
18338;SDS011;9295;44.484;11.240;2023-04-30T09:40:56;12.90;;;6.33;;
18338;SDS011;9295;44.484;11.240;2023-04-30T09:43:26;9.60;;;6.23;;
18338;SDS011;9295;44.484;11.240;2023-04-30T09:45:56;13.03;;;5.77;;
18338;SDS011;9295;44.484;11.240;2023-04-30T09:48:26;7.30;;;4.93;;
18338;SDS011;9295;44.484;11.240;2023-04-30T09:50:55;8.30;;;6.20;;
18338;SDS011;9295;44.484;11.240;2023-04-30T09:53:23;8.43;;;5.97;;
18338;SDS011;9295;44.484;11.240;2023-04-30T09:55:56;7.83;;;6.30;;
18338;SDS011;9295;44.484;11.240;2023-04-30T09:58:26;9.90;;;6.30;;
18338;SDS011;9295;44.484;11.240;2023-04-30T10:00:56;11.63;;;5.97;;
18338;SDS011;9295;44.484;11.240;2023-04-30T10:03:25;8.80;;;6.73;;
18338;SDS011;9295;44.484;11.240;2023-04-30T10:05:54;19.27;;;6.40;;
18338;SDS011;9295;44.484;11.240;2023-04-30T10:08:25;14.70;;;8.10;;
18338;SDS011;9295;44.484;11.240;2023-04-30T10:10:57;10.20;;;7.00;;
18338;SDS011;9295;44.484;11.240;2023-04-30T10:13:27;17.43;;;7.40;;
18338;SDS011;9295;44.484;11.240;2023-04-30T10:16:00;13.53;;;6.70;;
18338;SDS011;9295;44.484;11.240;2023-04-30T10:18:33;11.77;;;7.00;;
18338;SDS011;9295;44.484;11.240;2023-04-30T10:21:04;10.10;;;6.50;;
18338;SDS011;9295;44.484;11.240;2023-04-30T10:23:37;10.20;;;6.33;;
18338;SDS011;9295;44.484;11.240;2023-04-30T10:26:10;11.80;;;6.90;;
18338;SDS011;9295;44.484;11.240;2023-04-30T10:28:39;10.97;;;7.80;;
18338;SDS011;9295;44.484;11.240;2023-04-30T10:31:08;10.93;;;7.10;;
18338;SDS011;9295;44.484;11.240;2023-04-30T10:33:41;13.03;;;6.70;;
18338;SDS011;9295;44.484;11.240;2023-04-30T10:36:20;9.97;;;8.10;;
18338;SDS011;9295;44.484;11.240;2023-04-30T10:38:52;10.47;;;7.43;;
18338;SDS011;9295;44.484;11.240;2023-04-30T10:41:23;11.77;;;8.30;;
18338;SDS011;9295;44.484;11.240;2023-04-30T10:43:55;12.07;;;8.20;;
18338;SDS011;9295;44.484;11.240;2023-04-30T10:46:27;11.73;;;7.60;;
18338;SDS011;9295;44.484;11.240;2023-04-30T10:48:56;13.97;;;8.53;;
18338;SDS011;9295;44.484;11.240;2023-04-30T10:51:40;10.80;;;8.00;;
18338;SDS011;9295;44.484;11.240;2023-04-30T10:54:13;13.47;;;8.40;;
18338;SDS011;9295;44.484;11.240;2023-04-30T10:56:45;12.03;;;8.47;;
18338;SDS011;9295;44.484;11.240;2023-04-30T10:59:14;12.30;;;8.40;;
18338;SDS011;9295;44.484;11.240;2023-04-30T11:01:55;11.93;;;9.00;;
18338;SDS011;9295;44.484;11.240;2023-04-30T11:04:25;15.83;;;9.40;;
18338;SDS011;9295;44.484;11.240;2023-04-30T11:06:55;13.07;;;9.47;;
18338;SDS011;9295;44.484;11.240;2023-04-30T11:09:35;15.47;;;8.83;;
18338;SDS011;9295;44.484;11.240;2023-04-30T11:12:10;13.60;;;9.13;;
18338;SDS011;9295;44.484;11.240;2023-04-30T11:14:41;15.57;;;9.67;;
18338;SDS011;9295;44.484;11.240;2023-04-30T11:17:11;14.63;;;10.47;;
18338;SDS011;9295;44.484;11.240;2023-04-30T11:19:48;15.60;;;10.30;;
18338;SDS011;9295;44.484;11.240;2023-04-30T11:22:20;16.07;;;9.63;;
18338;SDS011;9295;44.484;11.240;2023-04-30T11:24:53;10.00;;;8.63;;
18338;SDS011;9295;44.484;11.240;2023-04-30T11:27:31;11.90;;;8.90;;
18338;SDS011;9295;44.484;11.240;2023-04-30T11:30:01;12.63;;;9.37;;
18338;SDS011;9295;44.484;11.240;2023-04-30T11:32:32;11.67;;;9.10;;
18338;SDS011;9295;44.484;11.240;2023-04-30T11:35:02;11.10;;;8.60;;
18338;SDS011;9295;44.484;11.240;2023-04-30T11:37:33;13.20;;;9.83;;
18338;SDS011;9295;44.484;11.240;2023-04-30T11:40:03;12.13;;;10.30;;
18338;SDS011;9295;44.484;11.240;2023-04-30T11:42:35;15.93;;;9.13;;
18338;SDS011;9295;44.484;11.240;2023-04-30T11:45:06;13.80;;;9.93;;
18338;SDS011;9295;44.484;11.240;2023-04-30T11:47:42;14.20;;;9.87;;
18338;SDS011;9295;44.484;11.240;2023-04-30T11:50:12;14.73;;;9.17;;
18338;SDS011;9295;44.484;11.240;2023-04-30T11:52:47;12.30;;;8.50;;
18338;SDS011;9295;44.484;11.240;2023-04-30T11:55:17;17.20;;;9.50;;
18338;SDS011;9295;44.484;11.240;2023-04-30T11:57:49;12.93;;;8.53;;
18338;SDS011;9295;44.484;11.240;2023-04-30T12:00:19;11.93;;;8.20;;
18338;SDS011;9295;44.484;11.240;2023-04-30T12:02:49;13.03;;;8.00;;
18338;SDS011;9295;44.484;11.240;2023-04-30T12:05:18;14.83;;;7.93;;
18338;SDS011;9295;44.484;11.240;2023-04-30T12:07:48;10.87;;;7.13;;
18338;SDS011;9295;44.484;11.240;2023-04-30T12:10:18;11.67;;;5.93;;
18338;SDS011;9295;44.484;11.240;2023-04-30T12:12:48;9.90;;;5.60;;
18338;SDS011;9295;44.484;11.240;2023-04-30T12:15:19;8.87;;;5.40;;
18338;SDS011;9295;44.484;11.240;2023-04-30T12:17:53;7.20;;;5.20;;
18338;SDS011;9295;44.484;11.240;2023-04-30T12:20:23;7.00;;;4.20;;
18338;SDS011;9295;44.484;11.240;2023-04-30T12:22:52;5.60;;;4.07;;
18338;SDS011;9295;44.484;11.240;2023-04-30T12:25:21;8.67;;;3.90;;
18338;SDS011;9295;44.484;11.240;2023-04-30T12:27:51;7.30;;;3.73;;
18338;SDS011;9295;44.484;11.240;2023-04-30T12:30:20;8.50;;;3.97;;
18338;SDS011;9295;44.484;11.240;2023-04-30T12:32:55;8.20;;;3.10;;
18338;SDS011;9295;44.484;11.240;2023-04-30T12:35:26;7.57;;;4.27;;
18338;SDS011;9295;44.484;11.240;2023-04-30T12:38:00;8.13;;;3.57;;
18338;SDS011;9295;44.484;11.240;2023-04-30T12:40:31;8.77;;;3.40;;
18338;SDS011;9295;44.484;11.240;2023-04-30T12:43:02;11.10;;;4.87;;
18338;SDS011;9295;44.484;11.240;2023-04-30T12:45:44;6.33;;;3.90;;
18338;SDS011;9295;44.484;11.240;2023-04-30T12:48:17;9.50;;;3.83;;
18338;SDS011;9295;44.484;11.240;2023-04-30T12:50:46;7.70;;;3.50;;
18338;SDS011;9295;44.484;11.240;2023-04-30T12:53:18;7.50;;;4.87;;
18338;SDS011;9295;44.484;11.240;2023-04-30T12:58:39;13.13;;;4.77;;
18338;SDS011;9295;44.484;11.240;2023-04-30T13:01:11;6.43;;;4.00;;
18338;SDS011;9295;44.484;11.240;2023-04-30T13:03:40;8.80;;;4.03;;
18338;SDS011;9295;44.484;11.240;2023-04-30T13:06:09;7.10;;;3.90;;
18338;SDS011;9295;44.484;11.240;2023-04-30T13:08:38;13.10;;;6.20;;
18338;SDS011;9295;44.484;11.240;2023-04-30T13:11:23;7.63;;;3.90;;
18338;SDS011;9295;44.484;11.240;2023-04-30T13:13:54;9.03;;;3.93;;
18338;SDS011;9295;44.484;11.240;2023-04-30T13:16:23;8.97;;;5.13;;
18338;SDS011;9295;44.484;11.240;2023-04-30T13:18:52;7.03;;;3.97;;
18338;SDS011;9295;44.484;11.240;2023-04-30T13:21:21;5.90;;;3.90;;
18338;SDS011;9295;44.484;11.240;2023-04-30T13:23:50;10.37;;;4.03;;
18338;SDS011;9295;44.484;11.240;2023-04-30T13:26:21;9.43;;;3.77;;
18338;SDS011;9295;44.484;11.240;2023-04-30T13:28:50;5.30;;;3.40;;
18338;SDS011;9295;44.484;11.240;2023-04-30T13:31:20;6.80;;;3.70;;
18338;SDS011;9295;44.484;11.240;2023-04-30T13:33:49;5.83;;;3.60;;
18338;SDS011;9295;44.484;11.240;2023-04-30T13:36:17;8.93;;;4.30;;
18338;SDS011;9295;44.484;11.240;2023-04-30T13:38:46;6.50;;;3.87;;
18338;SDS011;9295;44.484;11.240;2023-04-30T13:41:16;6.50;;;3.90;;
18338;SDS011;9295;44.484;11.240;2023-04-30T13:43:46;6.40;;;3.83;;
18338;SDS011;9295;44.484;11.240;2023-04-30T13:46:14;7.63;;;3.90;;
18338;SDS011;9295;44.484;11.240;2023-04-30T13:48:44;8.50;;;4.00;;
18338;SDS011;9295;44.484;11.240;2023-04-30T13:51:13;7.70;;;4.30;;
18338;SDS011;9295;44.484;11.240;2023-04-30T13:53:42;8.53;;;4.77;;
18338;SDS011;9295;44.484;11.240;2023-04-30T13:56:10;8.33;;;4.53;;
18338;SDS011;9295;44.484;11.240;2023-04-30T13:58:41;7.73;;;4.30;;
18338;SDS011;9295;44.484;11.240;2023-04-30T14:01:09;7.77;;;4.67;;
18338;SDS011;9295;44.484;11.240;2023-04-30T14:03:39;9.87;;;4.30;;
18338;SDS011;9295;44.484;11.240;2023-04-30T14:06:10;9.60;;;4.37;;
18338;SDS011;9295;44.484;11.240;2023-04-30T14:08:38;10.10;;;4.23;;
18338;SDS011;9295;44.484;11.240;2023-04-30T14:11:07;6.20;;;4.20;;
18338;SDS011;9295;44.484;11.240;2023-04-30T14:13:35;9.63;;;4.37;;
18338;SDS011;9295;44.484;11.240;2023-04-30T14:16:04;13.17;;;4.40;;
18338;SDS011;9295;44.484;11.240;2023-04-30T14:18:33;8.40;;;4.07;;
18338;SDS011;9295;44.484;11.240;2023-04-30T14:21:01;6.80;;;4.63;;
18338;SDS011;9295;44.484;11.240;2023-04-30T14:23:31;6.27;;;3.93;;
18338;SDS011;9295;44.484;11.240;2023-04-30T14:26:00;8.77;;;4.33;;
18338;SDS011;9295;44.484;11.240;2023-04-30T14:28:28;8.23;;;4.03;;
18338;SDS011;9295;44.484;11.240;2023-04-30T14:30:57;7.80;;;3.97;;
18338;SDS011;9295;44.484;11.240;2023-04-30T14:33:25;6.00;;;4.00;;
18338;SDS011;9295;44.484;11.240;2023-04-30T14:35:54;10.07;;;4.00;;
18338;SDS011;9295;44.484;11.240;2023-04-30T14:38:22;7.63;;;3.90;;
18338;SDS011;9295;44.484;11.240;2023-04-30T14:40:52;10.63;;;4.30;;
18338;SDS011;9295;44.484;11.240;2023-04-30T14:43:20;10.30;;;4.17;;
18338;SDS011;9295;44.484;11.240;2023-04-30T14:45:49;6.20;;;4.00;;
18338;SDS011;9295;44.484;11.240;2023-04-30T14:48:18;10.47;;;4.30;;
18338;SDS011;9295;44.484;11.240;2023-04-30T14:50:46;7.07;;;3.67;;